<?xml version="1.0" encoding="UTF-8"?>
<gpx version="1.1" creator="2bulu-scraper" xmlns="http://www.topografix.com/GPX/1/1">
  <metadata><name>:40丹山风景区水井湾环线</name><desc>source: 2bulu.com trackId=87807535; exported 2026-09-01T14:27:35.599Z</desc>
    <bounds minlat="28.237065" minlon="105.591876" maxlat="28.271203" maxlon="105.623117"/>
    <link href="https://www.2bulu.com/track/t-W4WQojLW3uTp%252FR2KBg5Tzw%253D%253D.htm"><text>2bulu 源页面</text></link>
  </metadata>

  <trk><name>:40丹山风景区水井湾环线</name>
      <trkseg>
        <trkpt lat="28.270529" lon="105.622429"><ele>667.7662</ele><time>2026-07-31T16:10:42.000Z</time></trkpt>
        <trkpt lat="28.270823" lon="105.621453"><ele>666.74176</ele><time>2026-07-31T16:15:05.000Z</time></trkpt>
        <trkpt lat="28.270109" lon="105.621216"><ele>678.13007</ele><time>2026-07-31T16:17:14.000Z</time></trkpt>
        <trkpt lat="28.269805" lon="105.620508"><ele>694.08954</ele><time>2026-07-31T16:18:43.000Z</time></trkpt>
        <trkpt lat="28.269514" lon="105.620386"><ele>707.8341</ele><time>2026-07-31T16:19:27.000Z</time></trkpt>
        <trkpt lat="28.269366" lon="105.61993"><ele>717.31366</ele><time>2026-07-31T16:20:36.000Z</time></trkpt>
        <trkpt lat="28.269457" lon="105.619095"><ele>738.9868</ele><time>2026-07-31T16:22:48.000Z</time></trkpt>
        <trkpt lat="28.269221" lon="105.618247"><ele>760.4814</ele><time>2026-07-31T16:24:48.000Z</time></trkpt>
        <trkpt lat="28.268698" lon="105.617795"><ele>777.0815</ele><time>2026-07-31T16:26:03.000Z</time></trkpt>
        <trkpt lat="28.268772" lon="105.617323"><ele>782.45105</ele><time>2026-07-31T16:27:00.000Z</time></trkpt>
        <trkpt lat="28.26856" lon="105.617144"><ele>790.023</ele><time>2026-07-31T16:27:45.000Z</time></trkpt>
        <trkpt lat="28.268532" lon="105.616803"><ele>794.22107</ele><time>2026-07-31T16:28:34.000Z</time></trkpt>
        <trkpt lat="28.268162" lon="105.616682"><ele>806.3069</ele><time>2026-07-31T16:29:30.000Z</time></trkpt>
        <trkpt lat="28.268101" lon="105.616168"><ele>809.2019</ele><time>2026-07-31T16:30:21.000Z</time></trkpt>
        <trkpt lat="28.267794" lon="105.615903"><ele>811.63257</ele><time>2026-07-31T16:31:06.000Z</time></trkpt>
        <trkpt lat="28.267694" lon="105.615316"><ele>812.87555</ele><time>2026-07-31T16:31:58.000Z</time></trkpt>
        <trkpt lat="28.267164" lon="105.615159"><ele>821.4964</ele><time>2026-07-31T16:32:56.000Z</time></trkpt>
        <trkpt lat="28.266978" lon="105.61476"><ele>820.9722</ele><time>2026-07-31T16:33:36.000Z</time></trkpt>
        <trkpt lat="28.266157" lon="105.614407"><ele>832.5447</ele><time>2026-07-31T16:35:17.000Z</time></trkpt>
        <trkpt lat="28.26544" lon="105.614577"><ele>842.7312</ele><time>2026-07-31T16:36:32.000Z</time></trkpt>
        <trkpt lat="28.26479" lon="105.614425"><ele>846.4408</ele><time>2026-07-31T16:37:40.000Z</time></trkpt>
        <trkpt lat="28.264735" lon="105.61365"><ele>857.80225</ele><time>2026-07-31T16:39:06.000Z</time></trkpt>
        <trkpt lat="28.264216" lon="105.613403"><ele>873.50775</ele><time>2026-07-31T16:40:19.000Z</time></trkpt>
        <trkpt lat="28.264324" lon="105.613045"><ele>871.2693</ele><time>2026-07-31T16:41:04.000Z</time></trkpt>
        <trkpt lat="28.264079" lon="105.612243"><ele>891.565</ele><time>2026-07-31T16:43:49.000Z</time></trkpt>
        <trkpt lat="28.263793" lon="105.61248"><ele>916.1177</ele><time>2026-07-31T16:46:17.000Z</time></trkpt>
        <trkpt lat="28.263566" lon="105.612083"><ele>924.61945</ele><time>2026-07-31T16:48:14.000Z</time></trkpt>
        <trkpt lat="28.263369" lon="105.612024"><ele>926.90295</ele><time>2026-07-31T16:48:51.000Z</time></trkpt>
        <trkpt lat="28.263096" lon="105.612139"><ele>942.61194</ele><time>2026-07-31T16:49:45.000Z</time></trkpt>
        <trkpt lat="28.262795" lon="105.612805"><ele>978.9516</ele><time>2026-07-31T16:54:15.000Z</time></trkpt>
        <trkpt lat="28.262528" lon="105.613024"><ele>996.4135</ele><time>2026-07-31T16:55:59.000Z</time></trkpt>
        <trkpt lat="28.262316" lon="105.613103"><ele>1003.56</ele><time>2026-07-31T16:57:17.000Z</time></trkpt>
        <trkpt lat="28.26227" lon="105.612863"><ele>1011.40186</ele><time>2026-07-31T16:58:19.000Z</time></trkpt>
        <trkpt lat="28.261975" lon="105.612759"><ele>1022.36816</ele><time>2026-07-31T16:59:17.000Z</time></trkpt>
        <trkpt lat="28.262084" lon="105.61302"><ele>1029.7982</ele><time>2026-07-31T16:59:57.000Z</time></trkpt>
        <trkpt lat="28.261895" lon="105.613422"><ele>1039.5635</ele><time>2026-07-31T17:00:39.000Z</time></trkpt>
        <trkpt lat="28.262011" lon="105.61372"><ele>1044.8661</ele><time>2026-07-31T17:01:12.000Z</time></trkpt>
        <trkpt lat="28.261839" lon="105.614064"><ele>1054.0717</ele><time>2026-07-31T17:01:54.000Z</time></trkpt>
        <trkpt lat="28.261934" lon="105.614456"><ele>1063.5319</ele><time>2026-07-31T17:02:38.000Z</time></trkpt>
        <trkpt lat="28.261803" lon="105.614839"><ele>1072.5424</ele><time>2026-07-31T17:03:31.000Z</time></trkpt>
        <trkpt lat="28.261434" lon="105.614264"><ele>1087.9175</ele><time>2026-07-31T17:06:06.000Z</time></trkpt>
        <trkpt lat="28.261404" lon="105.613914"><ele>1094.9319</ele><time>2026-07-31T17:06:56.000Z</time></trkpt>
        <trkpt lat="28.260826" lon="105.613409"><ele>1113.2898</ele><time>2026-07-31T17:09:02.000Z</time></trkpt>
        <trkpt lat="28.260784" lon="105.613784"><ele>1123.7733</ele><time>2026-07-31T17:10:03.000Z</time></trkpt>
        <trkpt lat="28.260465" lon="105.613624"><ele>1133.2224</ele><time>2026-07-31T17:10:53.000Z</time></trkpt>
        <trkpt lat="28.25963" lon="105.614014"><ele>1142.8942</ele><time>2026-07-31T17:30:11.000Z</time></trkpt>
        <trkpt lat="28.258574" lon="105.613578"><ele>1142.1353</ele><time>2026-07-31T17:33:07.000Z</time></trkpt>
        <trkpt lat="28.257558" lon="105.613674"><ele>1145.5841</ele><time>2026-07-31T17:34:41.000Z</time></trkpt>
        <trkpt lat="28.256772" lon="105.613458"><ele>1150.0096</ele><time>2026-07-31T17:35:54.000Z</time></trkpt>
        <trkpt lat="28.255773" lon="105.613657"><ele>1151.4185</ele><time>2026-07-31T17:37:20.000Z</time></trkpt>
        <trkpt lat="28.254606" lon="105.613566"><ele>1154.8999</ele><time>2026-07-31T17:39:00.000Z</time></trkpt>
        <trkpt lat="28.254295" lon="105.613447"><ele>1153.6738</ele><time>2026-07-31T17:39:31.000Z</time></trkpt>
        <trkpt lat="28.253763" lon="105.61276"><ele>1157.2654</ele><time>2026-07-31T17:41:03.000Z</time></trkpt>
        <trkpt lat="28.253611" lon="105.61313"><ele>1164.5598</ele><time>2026-07-31T17:42:12.000Z</time></trkpt>
        <trkpt lat="28.253452" lon="105.615428"><ele>1150.5459</ele><time>2026-07-31T17:46:24.000Z</time></trkpt>
        <trkpt lat="28.253819" lon="105.616188"><ele>1135.9845</ele><time>2026-07-31T17:47:57.000Z</time></trkpt>
        <trkpt lat="28.253572" lon="105.616266"><ele>1129.164</ele><time>2026-07-31T17:48:27.000Z</time></trkpt>
        <trkpt lat="28.25292" lon="105.615967"><ele>1088.962</ele><time>2026-07-31T17:51:24.000Z</time></trkpt>
        <trkpt lat="28.252081" lon="105.6142"><ele>1066.269</ele><time>2026-07-31T17:56:10.000Z</time></trkpt>
        <trkpt lat="28.251747" lon="105.615326"><ele>1091.1168</ele><time>2026-07-31T18:00:06.000Z</time></trkpt>
        <trkpt lat="28.251667" lon="105.616466"><ele>1083.0934</ele><time>2026-07-31T18:06:03.000Z</time></trkpt>
        <trkpt lat="28.251331" lon="105.616627"><ele>1081.8585</ele><time>2026-07-31T18:07:58.000Z</time></trkpt>
        <trkpt lat="28.251634" lon="105.61719"><ele>1089.6967</ele><time>2026-07-31T18:10:04.000Z</time></trkpt>
        <trkpt lat="28.251559" lon="105.617722"><ele>1090.3374</ele><time>2026-07-31T18:13:30.000Z</time></trkpt>
        <trkpt lat="28.251879" lon="105.618013"><ele>1104.546</ele><time>2026-07-31T18:16:09.000Z</time></trkpt>
        <trkpt lat="28.251739" lon="105.618496"><ele>1115.0306</ele><time>2026-07-31T18:18:36.000Z</time></trkpt>
        <trkpt lat="28.251872" lon="105.618675"><ele>1115.9108</ele><time>2026-07-31T18:19:07.000Z</time></trkpt>
        <trkpt lat="28.251666" lon="105.619203"><ele>1117.2969</ele><time>2026-07-31T18:20:13.000Z</time></trkpt>
        <trkpt lat="28.252073" lon="105.619401"><ele>1129.4901</ele><time>2026-07-31T18:22:02.000Z</time></trkpt>
        <trkpt lat="28.251886" lon="105.619516"><ele>1134.4005</ele><time>2026-07-31T18:24:35.000Z</time></trkpt>
        <trkpt lat="28.252018" lon="105.619552"><ele>1132.3324</ele><time>2026-07-31T18:25:41.000Z</time></trkpt>
        <trkpt lat="28.251949" lon="105.619825"><ele>1138.1619</ele><time>2026-07-31T18:32:26.000Z</time></trkpt>
        <trkpt lat="28.250871" lon="105.620447"><ele>1172.3652</ele><time>2026-07-31T18:35:39.000Z</time></trkpt>
        <trkpt lat="28.250115" lon="105.620041"><ele>1174.3839</ele><time>2026-07-31T18:37:08.000Z</time></trkpt>
        <trkpt lat="28.249834" lon="105.620249"><ele>1179.7526</ele><time>2026-07-31T18:38:28.000Z</time></trkpt>
        <trkpt lat="28.250319" lon="105.621353"><ele>1146.3473</ele><time>2026-07-31T18:41:07.000Z</time></trkpt>
        <trkpt lat="28.250206" lon="105.6215"><ele>1145.7668</ele><time>2026-07-31T18:41:54.000Z</time></trkpt>
        <trkpt lat="28.249947" lon="105.621424"><ele>1146.5219</ele><time>2026-07-31T18:43:02.000Z</time></trkpt>
        <trkpt lat="28.249767" lon="105.621665"><ele>1136.6882</ele><time>2026-07-31T18:44:09.000Z</time></trkpt>
        <trkpt lat="28.249826" lon="105.622098"><ele>1134.2096</ele><time>2026-07-31T18:45:07.000Z</time></trkpt>
        <trkpt lat="28.250511" lon="105.622413"><ele>1124.9668</ele><time>2026-07-31T18:46:34.000Z</time></trkpt>
        <trkpt lat="28.250424" lon="105.623117"><ele>1114.948</ele><time>2026-07-31T18:48:23.000Z</time></trkpt>
        <trkpt lat="28.249803" lon="105.623077"><ele>1125.689</ele><time>2026-07-31T18:51:43.000Z</time></trkpt>
        <trkpt lat="28.249522" lon="105.622573"><ele>1149.2172</ele><time>2026-07-31T18:55:02.000Z</time></trkpt>
        <trkpt lat="28.249167" lon="105.62246"><ele>1152.5841</ele><time>2026-07-31T18:56:09.000Z</time></trkpt>
        <trkpt lat="28.249079" lon="105.622754"><ele>1148.7496</ele><time>2026-07-31T18:57:19.000Z</time></trkpt>
        <trkpt lat="28.248678" lon="105.62295"><ele>1163.5476</ele><time>2026-07-31T18:59:30.000Z</time></trkpt>
        <trkpt lat="28.248848" lon="105.620906"><ele>1186.1414</ele><time>2026-07-31T19:04:37.000Z</time></trkpt>
        <trkpt lat="28.249062" lon="105.620275"><ele>1201.9391</ele><time>2026-07-31T19:05:45.000Z</time></trkpt>
        <trkpt lat="28.248852" lon="105.617846"><ele>1175.4056</ele><time>2026-07-31T19:09:37.000Z</time></trkpt>
        <trkpt lat="28.249211" lon="105.616313"><ele>1169.4846</ele><time>2026-07-31T19:11:39.000Z</time></trkpt>
        <trkpt lat="28.249095" lon="105.614615"><ele>1181.2201</ele><time>2026-07-31T19:16:10.000Z</time></trkpt>
        <trkpt lat="28.249606" lon="105.612795"><ele>1192.9241</ele><time>2026-07-31T19:18:53.000Z</time></trkpt>
        <trkpt lat="28.249495" lon="105.611633"><ele>1196.776</ele><time>2026-07-31T19:20:18.000Z</time></trkpt>
        <trkpt lat="28.249601" lon="105.610721"><ele>1199.4408</ele><time>2026-07-31T19:21:26.000Z</time></trkpt>
        <trkpt lat="28.250234" lon="105.61083"><ele>1185.8644</ele><time>2026-07-31T19:22:41.000Z</time></trkpt>
        <trkpt lat="28.250584" lon="105.610554"><ele>1176.5955</ele><time>2026-07-31T19:23:33.000Z</time></trkpt>
        <trkpt lat="28.250332" lon="105.610447"><ele>1182.8645</ele><time>2026-07-31T19:26:07.000Z</time></trkpt>
        <trkpt lat="28.250071" lon="105.610028"><ele>1193.857</ele><time>2026-07-31T19:28:39.000Z</time></trkpt>
        <trkpt lat="28.250225" lon="105.609861"><ele>1192.5347</ele><time>2026-07-31T19:29:05.000Z</time></trkpt>
        <trkpt lat="28.25007" lon="105.609515"><ele>1196.0868</ele><time>2026-07-31T19:30:42.000Z</time></trkpt>
        <trkpt lat="28.250296" lon="105.609191"><ele>1190.8696</ele><time>2026-07-31T19:32:30.000Z</time></trkpt>
        <trkpt lat="28.250282" lon="105.608347"><ele>1196.7964</ele><time>2026-07-31T19:35:55.000Z</time></trkpt>
        <trkpt lat="28.250642" lon="105.608191"><ele>1204.0215</ele><time>2026-07-31T19:37:04.000Z</time></trkpt>
        <trkpt lat="28.250958" lon="105.608574"><ele>1202.3558</ele><time>2026-07-31T19:38:00.000Z</time></trkpt>
        <trkpt lat="28.251215" lon="105.608475"><ele>1206.215</ele><time>2026-07-31T19:38:37.000Z</time></trkpt>
        <trkpt lat="28.251462" lon="105.608658"><ele>1203.1982</ele><time>2026-07-31T19:39:12.000Z</time></trkpt>
        <trkpt lat="28.251533" lon="105.60844"><ele>1199.7783</ele><time>2026-07-31T19:41:52.000Z</time></trkpt>
        <trkpt lat="28.251389" lon="105.608672"><ele>1202.6436</ele><time>2026-07-31T20:16:34.000Z</time></trkpt>
        <trkpt lat="28.250932" lon="105.608435"><ele>1209.5428</ele><time>2026-07-31T20:17:49.000Z</time></trkpt>
        <trkpt lat="28.250622" lon="105.607927"><ele>1215.8356</ele><time>2026-07-31T20:18:53.000Z</time></trkpt>
        <trkpt lat="28.249436" lon="105.60781"><ele>1234.086</ele><time>2026-07-31T20:21:06.000Z</time></trkpt>
        <trkpt lat="28.248951" lon="105.607295"><ele>1236.9689</ele><time>2026-07-31T20:22:07.000Z</time></trkpt>
        <trkpt lat="28.247886" lon="105.607406"><ele>1245.7172</ele><time>2026-07-31T20:23:48.000Z</time></trkpt>
        <trkpt lat="28.247331" lon="105.606885"><ele>1245.2542</ele><time>2026-07-31T20:24:54.000Z</time></trkpt>
        <trkpt lat="28.246734" lon="105.60698"><ele>1244.3447</ele><time>2026-07-31T20:25:49.000Z</time></trkpt>
        <trkpt lat="28.246481" lon="105.6078"><ele>1246.7825</ele><time>2026-07-31T20:26:51.000Z</time></trkpt>
        <trkpt lat="28.246105" lon="105.608055"><ele>1244.7046</ele><time>2026-07-31T20:27:28.000Z</time></trkpt>
        <trkpt lat="28.245722" lon="105.607024"><ele>1236.2014</ele><time>2026-07-31T20:28:52.000Z</time></trkpt>
        <trkpt lat="28.245026" lon="105.605874"><ele>1237.3582</ele><time>2026-07-31T20:30:48.000Z</time></trkpt>
        <trkpt lat="28.244503" lon="105.605759"><ele>1247.4672</ele><time>2026-07-31T20:31:58.000Z</time></trkpt>
        <trkpt lat="28.244034" lon="105.605847"><ele>1249.8809</ele><time>2026-07-31T20:32:50.000Z</time></trkpt>
        <trkpt lat="28.244097" lon="105.606654"><ele>1247.3768</ele><time>2026-07-31T20:34:34.000Z</time></trkpt>
        <trkpt lat="28.243687" lon="105.607493"><ele>1258.3138</ele><time>2026-07-31T20:36:16.000Z</time></trkpt>
        <trkpt lat="28.243314" lon="105.607434"><ele>1253.1732</ele><time>2026-07-31T20:36:58.000Z</time></trkpt>
        <trkpt lat="28.242742" lon="105.60706"><ele>1249.6992</ele><time>2026-07-31T20:38:08.000Z</time></trkpt>
        <trkpt lat="28.24286" lon="105.608169"><ele>1251.7137</ele><time>2026-07-31T20:40:15.000Z</time></trkpt>
        <trkpt lat="28.24231" lon="105.608343"><ele>1248.344</ele><time>2026-07-31T20:41:09.000Z</time></trkpt>
        <trkpt lat="28.242248" lon="105.608681"><ele>1247.6226</ele><time>2026-07-31T20:41:46.000Z</time></trkpt>
        <trkpt lat="28.242541" lon="105.609077"><ele>1248.9778</ele><time>2026-07-31T20:42:36.000Z</time></trkpt>
        <trkpt lat="28.242018" lon="105.609455"><ele>1233.8813</ele><time>2026-07-31T20:43:40.000Z</time></trkpt>
        <trkpt lat="28.242172" lon="105.609809"><ele>1231.067</ele><time>2026-07-31T20:44:34.000Z</time></trkpt>
        <trkpt lat="28.242548" lon="105.609893"><ele>1224.673</ele><time>2026-07-31T20:45:14.000Z</time></trkpt>
        <trkpt lat="28.242495" lon="105.610089"><ele>1225.3123</ele><time>2026-07-31T20:45:36.000Z</time></trkpt>
        <trkpt lat="28.242952" lon="105.61045"><ele>1232.275</ele><time>2026-07-31T20:49:46.000Z</time></trkpt>
        <trkpt lat="28.242756" lon="105.610792"><ele>1233.1702</ele><time>2026-07-31T20:50:24.000Z</time></trkpt>
        <trkpt lat="28.24297" lon="105.611041"><ele>1235.5668</ele><time>2026-07-31T20:50:58.000Z</time></trkpt>
        <trkpt lat="28.242633" lon="105.61133"><ele>1232.4312</ele><time>2026-07-31T20:51:52.000Z</time></trkpt>
        <trkpt lat="28.242845" lon="105.611499"><ele>1232.3586</ele><time>2026-07-31T20:52:18.000Z</time></trkpt>
        <trkpt lat="28.242775" lon="105.611799"><ele>1231.6285</ele><time>2026-07-31T20:52:48.000Z</time></trkpt>
        <trkpt lat="28.242999" lon="105.612037"><ele>1227.3641</ele><time>2026-07-31T20:53:24.000Z</time></trkpt>
        <trkpt lat="28.242546" lon="105.612432"><ele>1231.5223</ele><time>2026-07-31T20:54:35.000Z</time></trkpt>
        <trkpt lat="28.242763" lon="105.612944"><ele>1231.119</ele><time>2026-07-31T20:55:43.000Z</time></trkpt>
        <trkpt lat="28.242662" lon="105.613287"><ele>1234.3794</ele><time>2026-07-31T20:56:24.000Z</time></trkpt>
        <trkpt lat="28.242878" lon="105.613534"><ele>1235.7749</ele><time>2026-07-31T20:57:02.000Z</time></trkpt>
        <trkpt lat="28.24257" lon="105.614074"><ele>1233.8862</ele><time>2026-07-31T20:58:27.000Z</time></trkpt>
        <trkpt lat="28.24274" lon="105.61456"><ele>1230.8777</ele><time>2026-07-31T21:01:11.000Z</time></trkpt>
        <trkpt lat="28.242219" lon="105.614817"><ele>1236.2676</ele><time>2026-07-31T21:03:54.000Z</time></trkpt>
        <trkpt lat="28.242067" lon="105.612762"><ele>1265.4818</ele><time>2026-07-31T21:07:58.000Z</time></trkpt>
        <trkpt lat="28.241743" lon="105.612201"><ele>1264.0933</ele><time>2026-07-31T21:08:50.000Z</time></trkpt>
        <trkpt lat="28.241768" lon="105.611704"><ele>1277.2162</ele><time>2026-07-31T21:09:59.000Z</time></trkpt>
        <trkpt lat="28.241457" lon="105.610824"><ele>1291.8898</ele><time>2026-07-31T21:11:36.000Z</time></trkpt>
        <trkpt lat="28.240889" lon="105.610286"><ele>1302.598</ele><time>2026-07-31T21:13:37.000Z</time></trkpt>
        <trkpt lat="28.240933" lon="105.609897"><ele>1311.039</ele><time>2026-07-31T21:14:51.000Z</time></trkpt>
        <trkpt lat="28.240787" lon="105.609703"><ele>1313.9923</ele><time>2026-07-31T21:19:27.000Z</time></trkpt>
        <trkpt lat="28.240941" lon="105.608592"><ele>1318.1652</ele><time>2026-07-31T21:20:58.000Z</time></trkpt>
        <trkpt lat="28.241342" lon="105.607654"><ele>1312.5575</ele><time>2026-07-31T21:22:26.000Z</time></trkpt>
        <trkpt lat="28.241368" lon="105.60669"><ele>1322.3639</ele><time>2026-07-31T21:24:18.000Z</time></trkpt>
        <trkpt lat="28.241161" lon="105.606339"><ele>1324.0256</ele><time>2026-07-31T21:25:00.000Z</time></trkpt>
        <trkpt lat="28.240654" lon="105.606055"><ele>1318.8441</ele><time>2026-07-31T21:25:54.000Z</time></trkpt>
        <trkpt lat="28.240158" lon="105.60512"><ele>1318.5651</ele><time>2026-07-31T21:27:24.000Z</time></trkpt>
        <trkpt lat="28.238808" lon="105.60509"><ele>1335.5299</ele><time>2026-07-31T21:31:48.000Z</time></trkpt>
        <trkpt lat="28.237838" lon="105.604064"><ele>1343.0297</ele><time>2026-07-31T21:34:00.000Z</time></trkpt>
        <trkpt lat="28.237065" lon="105.604046"><ele>1343.205</ele><time>2026-07-31T21:35:20.000Z</time></trkpt>
        <trkpt lat="28.237113" lon="105.603595"><ele>1341.9701</ele><time>2026-07-31T21:36:07.000Z</time></trkpt>
        <trkpt lat="28.237497" lon="105.603375"><ele>1347.4934</ele><time>2026-07-31T21:36:50.000Z</time></trkpt>
        <trkpt lat="28.238287" lon="105.603262"><ele>1356.3447</ele><time>2026-07-31T21:38:17.000Z</time></trkpt>
        <trkpt lat="28.238634" lon="105.602999"><ele>1362.4576</ele><time>2026-07-31T21:39:17.000Z</time></trkpt>
        <trkpt lat="28.239014" lon="105.602532"><ele>1372.0881</ele><time>2026-07-31T21:40:07.000Z</time></trkpt>
        <trkpt lat="28.239181" lon="105.602034"><ele>1372.0714</ele><time>2026-07-31T21:40:46.000Z</time></trkpt>
        <trkpt lat="28.239468" lon="105.601798"><ele>1369.2461</ele><time>2026-07-31T21:41:12.000Z</time></trkpt>
        <trkpt lat="28.239494" lon="105.601115"><ele>1367.7633</ele><time>2026-07-31T21:42:06.000Z</time></trkpt>
        <trkpt lat="28.239814" lon="105.60038"><ele>1373.1233</ele><time>2026-07-31T21:43:15.000Z</time></trkpt>
        <trkpt lat="28.240712" lon="105.600134"><ele>1357.9445</ele><time>2026-07-31T21:45:05.000Z</time></trkpt>
        <trkpt lat="28.241681" lon="105.600491"><ele>1353.4222</ele><time>2026-07-31T21:46:28.000Z</time></trkpt>
        <trkpt lat="28.242207" lon="105.600397"><ele>1365.423</ele><time>2026-07-31T21:47:24.000Z</time></trkpt>
        <trkpt lat="28.242573" lon="105.599716"><ele>1377.886</ele><time>2026-07-31T21:49:58.000Z</time></trkpt>
        <trkpt lat="28.24263" lon="105.598703"><ele>1379.0498</ele><time>2026-07-31T21:51:26.000Z</time></trkpt>
        <trkpt lat="28.243227" lon="105.597726"><ele>1384.827</ele><time>2026-07-31T21:52:58.000Z</time></trkpt>
        <trkpt lat="28.243372" lon="105.596997"><ele>1375.8617</ele><time>2026-07-31T21:53:53.000Z</time></trkpt>
        <trkpt lat="28.243535" lon="105.596838"><ele>1375.6681</ele><time>2026-07-31T21:54:09.000Z</time></trkpt>
        <trkpt lat="28.244041" lon="105.596715"><ele>1372.3064</ele><time>2026-07-31T21:54:58.000Z</time></trkpt>
        <trkpt lat="28.244544" lon="105.597277"><ele>1366.3541</ele><time>2026-07-31T21:56:00.000Z</time></trkpt>
        <trkpt lat="28.244994" lon="105.597363"><ele>1361.8687</ele><time>2026-07-31T21:56:46.000Z</time></trkpt>
        <trkpt lat="28.245368" lon="105.597239"><ele>1356.9629</ele><time>2026-07-31T21:57:17.000Z</time></trkpt>
        <trkpt lat="28.245804" lon="105.596807"><ele>1346.8505</ele><time>2026-07-31T21:58:07.000Z</time></trkpt>
        <trkpt lat="28.246518" lon="105.595244"><ele>1335.6315</ele><time>2026-07-31T22:00:23.000Z</time></trkpt>
        <trkpt lat="28.246791" lon="105.596457"><ele>1316.7074</ele><time>2026-07-31T22:02:13.000Z</time></trkpt>
        <trkpt lat="28.246969" lon="105.596683"><ele>1309.3123</ele><time>2026-07-31T22:02:39.000Z</time></trkpt>
        <trkpt lat="28.24751" lon="105.59702"><ele>1310.386</ele><time>2026-07-31T22:04:33.000Z</time></trkpt>
        <trkpt lat="28.248375" lon="105.596789"><ele>1318.6686</ele><time>2026-07-31T22:05:59.000Z</time></trkpt>
        <trkpt lat="28.248855" lon="105.595756"><ele>1309.4927</ele><time>2026-07-31T22:08:32.000Z</time></trkpt>
        <trkpt lat="28.249414" lon="105.59545"><ele>1298.5502</ele><time>2026-07-31T22:09:32.000Z</time></trkpt>
        <trkpt lat="28.250284" lon="105.595252"><ele>1280.8865</ele><time>2026-07-31T22:11:12.000Z</time></trkpt>
        <trkpt lat="28.251481" lon="105.594307"><ele>1258.516</ele><time>2026-07-31T22:14:16.000Z</time></trkpt>
        <trkpt lat="28.25207" lon="105.59421"><ele>1245.105</ele><time>2026-07-31T22:15:16.000Z</time></trkpt>
        <trkpt lat="28.252546" lon="105.594655"><ele>1233.0868</ele><time>2026-07-31T22:16:15.000Z</time></trkpt>
        <trkpt lat="28.253596" lon="105.594881"><ele>1213.3502</ele><time>2026-07-31T22:18:25.000Z</time></trkpt>
        <trkpt lat="28.254883" lon="105.593145"><ele>1230.1124</ele><time>2026-07-31T22:24:27.000Z</time></trkpt>
        <trkpt lat="28.255286" lon="105.593192"><ele>1239.0012</ele><time>2026-07-31T22:25:46.000Z</time></trkpt>
        <trkpt lat="28.255962" lon="105.592661"><ele>1245.8091</ele><time>2026-07-31T22:27:01.000Z</time></trkpt>
        <trkpt lat="28.256512" lon="105.592453"><ele>1236.9891</ele><time>2026-07-31T22:28:15.000Z</time></trkpt>
        <trkpt lat="28.256856" lon="105.591876"><ele>1223.2185</ele><time>2026-07-31T22:29:14.000Z</time></trkpt>
        <trkpt lat="28.257606" lon="105.592124"><ele>1212.2776</ele><time>2026-07-31T22:30:30.000Z</time></trkpt>
        <trkpt lat="28.257694" lon="105.592626"><ele>1207.0137</ele><time>2026-07-31T22:31:13.000Z</time></trkpt>
        <trkpt lat="28.257376" lon="105.593011"><ele>1207.7253</ele><time>2026-07-31T22:31:55.000Z</time></trkpt>
        <trkpt lat="28.257574" lon="105.593605"><ele>1200.3191</ele><time>2026-07-31T22:32:42.000Z</time></trkpt>
        <trkpt lat="28.258583" lon="105.594486"><ele>1196.7035</ele><time>2026-07-31T22:34:28.000Z</time></trkpt>
        <trkpt lat="28.258488" lon="105.594833"><ele>1192.1754</ele><time>2026-07-31T22:34:54.000Z</time></trkpt>
        <trkpt lat="28.258738" lon="105.595038"><ele>1191.7108</ele><time>2026-07-31T22:35:12.000Z</time></trkpt>
        <trkpt lat="28.258765" lon="105.59563"><ele>1189.4891</ele><time>2026-07-31T22:35:52.000Z</time></trkpt>
        <trkpt lat="28.259448" lon="105.596137"><ele>1187.946</ele><time>2026-07-31T22:36:53.000Z</time></trkpt>
        <trkpt lat="28.25954" lon="105.596918"><ele>1181.38</ele><time>2026-07-31T22:37:54.000Z</time></trkpt>
        <trkpt lat="28.259785" lon="105.597356"><ele>1173.997</ele><time>2026-07-31T22:38:34.000Z</time></trkpt>
        <trkpt lat="28.2603" lon="105.597605"><ele>1168.6759</ele><time>2026-07-31T22:39:25.000Z</time></trkpt>
        <trkpt lat="28.260317" lon="105.597895"><ele>1165.1093</ele><time>2026-07-31T22:39:47.000Z</time></trkpt>
        <trkpt lat="28.260931" lon="105.598631"><ele>1159.838</ele><time>2026-07-31T22:41:07.000Z</time></trkpt>
        <trkpt lat="28.261244" lon="105.599427"><ele>1160.9731</ele><time>2026-07-31T22:42:18.000Z</time></trkpt>
        <trkpt lat="28.261544" lon="105.59955"><ele>1159.4755</ele><time>2026-07-31T22:42:48.000Z</time></trkpt>
        <trkpt lat="28.261839" lon="105.600199"><ele>1154.0752</ele><time>2026-07-31T22:47:20.000Z</time></trkpt>
        <trkpt lat="28.2623" lon="105.600648"><ele>1123.5042</ele><time>2026-07-31T22:49:05.000Z</time></trkpt>
        <trkpt lat="28.262409" lon="105.600545"><ele>1119.4263</ele><time>2026-07-31T22:49:50.000Z</time></trkpt>
        <trkpt lat="28.262316" lon="105.600835"><ele>1112.8182</ele><time>2026-07-31T22:51:04.000Z</time></trkpt>
        <trkpt lat="28.26246" lon="105.602073"><ele>1018.1131</ele><time>2026-07-31T22:58:26.000Z</time></trkpt>
        <trkpt lat="28.262799" lon="105.602723"><ele>977.3987</ele><time>2026-07-31T23:01:48.000Z</time></trkpt>
        <trkpt lat="28.262991" lon="105.602934"><ele>961.4996</ele><time>2026-07-31T23:02:56.000Z</time></trkpt>
        <trkpt lat="28.263103" lon="105.601991"><ele>945.77094</ele><time>2026-07-31T23:05:48.000Z</time></trkpt>
        <trkpt lat="28.26345" lon="105.601641"><ele>935.2352</ele><time>2026-07-31T23:06:50.000Z</time></trkpt>
        <trkpt lat="28.264834" lon="105.601589"><ele>870.9459</ele><time>2026-07-31T23:12:13.000Z</time></trkpt>
        <trkpt lat="28.264788" lon="105.601849"><ele>858.5197</ele><time>2026-07-31T23:13:45.000Z</time></trkpt>
        <trkpt lat="28.264256" lon="105.602281"><ele>862.61755</ele><time>2026-07-31T23:15:45.000Z</time></trkpt>
        <trkpt lat="28.264077" lon="105.602643"><ele>884.50336</ele><time>2026-07-31T23:16:44.000Z</time></trkpt>
        <trkpt lat="28.263735" lon="105.602101"><ele>836.0516</ele><time>2026-07-31T23:18:45.000Z</time></trkpt>
        <trkpt lat="28.263953" lon="105.602131"><ele>824.08875</ele><time>2026-07-31T23:28:37.000Z</time></trkpt>
        <trkpt lat="28.264099" lon="105.602445"><ele>797.3893</ele><time>2026-07-31T23:31:24.000Z</time></trkpt>
        <trkpt lat="28.264085" lon="105.603064"><ele>793.3323</ele><time>2026-07-31T23:33:23.000Z</time></trkpt>
        <trkpt lat="28.264188" lon="105.603174"><ele>788.2147</ele><time>2026-07-31T23:34:19.000Z</time></trkpt>
        <trkpt lat="28.264266" lon="105.603034"><ele>778.29285</ele><time>2026-07-31T23:35:59.000Z</time></trkpt>
        <trkpt lat="28.264333" lon="105.603195"><ele>771.3579</ele><time>2026-07-31T23:37:20.000Z</time></trkpt>
        <trkpt lat="28.264274" lon="105.602781"><ele>758.2229</ele><time>2026-07-31T23:40:23.000Z</time></trkpt>
        <trkpt lat="28.264493" lon="105.602982"><ele>746.52734</ele><time>2026-07-31T23:47:00.000Z</time></trkpt>
        <trkpt lat="28.264164" lon="105.603041"><ele>735.8249</ele><time>2026-07-31T23:48:28.000Z</time></trkpt>
        <trkpt lat="28.264571" lon="105.602855"><ele>739.5945</ele><time>2026-07-31T23:53:48.000Z</time></trkpt>
        <trkpt lat="28.264458" lon="105.602765"><ele>736.8121</ele><time>2026-07-31T23:55:35.000Z</time></trkpt>
        <trkpt lat="28.264702" lon="105.602955"><ele>738.9985</ele><time>2026-08-01T00:00:11.000Z</time></trkpt>
        <trkpt lat="28.26431" lon="105.602804"><ele>738.04144</ele><time>2026-08-01T00:01:44.000Z</time></trkpt>
        <trkpt lat="28.264243" lon="105.602586"><ele>747.479</ele><time>2026-08-01T00:03:59.000Z</time></trkpt>
        <trkpt lat="28.264967" lon="105.602661"><ele>756.296</ele><time>2026-08-01T00:08:45.000Z</time></trkpt>
        <trkpt lat="28.264887" lon="105.602475"><ele>750.5657</ele><time>2026-08-01T00:09:21.000Z</time></trkpt>
        <trkpt lat="28.265356" lon="105.602066"><ele>753.63513</ele><time>2026-08-01T00:13:01.000Z</time></trkpt>
        <trkpt lat="28.265306" lon="105.601918"><ele>749.9359</ele><time>2026-08-01T00:13:31.000Z</time></trkpt>
        <trkpt lat="28.265683" lon="105.60172"><ele>720.2854</ele><time>2026-08-01T00:22:27.000Z</time></trkpt>
        <trkpt lat="28.265626" lon="105.601873"><ele>717.6579</ele><time>2026-08-01T00:23:59.000Z</time></trkpt>
        <trkpt lat="28.265724" lon="105.601782"><ele>707.23035</ele><time>2026-08-01T00:27:15.000Z</time></trkpt>
        <trkpt lat="28.265765" lon="105.601922"><ele>700.5849</ele><time>2026-08-01T00:30:53.000Z</time></trkpt>
        <trkpt lat="28.265867" lon="105.601711"><ele>692.2471</ele><time>2026-08-01T00:32:13.000Z</time></trkpt>
        <trkpt lat="28.265745" lon="105.601371"><ele>684.45746</ele><time>2026-08-01T00:33:51.000Z</time></trkpt>
        <trkpt lat="28.265998" lon="105.601489"><ele>696.1409</ele><time>2026-08-01T00:36:34.000Z</time></trkpt>
        <trkpt lat="28.265832" lon="105.602167"><ele>696.73004</ele><time>2026-08-01T00:38:04.000Z</time></trkpt>
        <trkpt lat="28.264811" lon="105.603712"><ele>669.0704</ele><time>2026-08-01T00:41:07.000Z</time></trkpt>
        <trkpt lat="28.264815" lon="105.604355"><ele>659.6291</ele><time>2026-08-01T00:42:14.000Z</time></trkpt>
        <trkpt lat="28.265211" lon="105.605803"><ele>651.5223</ele><time>2026-08-01T00:45:05.000Z</time></trkpt>
        <trkpt lat="28.26428" lon="105.606757"><ele>636.9826</ele><time>2026-08-01T00:47:43.000Z</time></trkpt>
        <trkpt lat="28.264079" lon="105.607498"><ele>635.96655</ele><time>2026-08-01T00:49:09.000Z</time></trkpt>
        <trkpt lat="28.264185" lon="105.608252"><ele>623.22296</ele><time>2026-08-01T00:50:40.000Z</time></trkpt>
        <trkpt lat="28.264302" lon="105.608494"><ele>626.31696</ele><time>2026-08-01T00:51:05.000Z</time></trkpt>
        <trkpt lat="28.264872" lon="105.608747"><ele>616.2239</ele><time>2026-08-01T00:52:42.000Z</time></trkpt>
        <trkpt lat="28.265208" lon="105.609272"><ele>621.2567</ele><time>2026-08-01T01:01:19.000Z</time></trkpt>
        <trkpt lat="28.265597" lon="105.611804"><ele>643.4519</ele><time>2026-08-01T01:06:56.000Z</time></trkpt>
        <trkpt lat="28.266059" lon="105.61247"><ele>670.45703</ele><time>2026-08-01T01:08:33.000Z</time></trkpt>
        <trkpt lat="28.265987" lon="105.612656"><ele>653.81744</ele><time>2026-08-01T01:09:03.000Z</time></trkpt>
        <trkpt lat="28.266241" lon="105.612558"><ele>659.27747</ele><time>2026-08-01T01:09:58.000Z</time></trkpt>
        <trkpt lat="28.266171" lon="105.612695"><ele>646.36</ele><time>2026-08-01T01:10:13.000Z</time></trkpt>
        <trkpt lat="28.266947" lon="105.613374"><ele>624.6303</ele><time>2026-08-01T01:12:22.000Z</time></trkpt>
        <trkpt lat="28.268306" lon="105.614138"><ele>624.6754</ele><time>2026-08-01T01:15:22.000Z</time></trkpt>
        <trkpt lat="28.268781" lon="105.615284"><ele>641.30164</ele><time>2026-08-01T01:17:15.000Z</time></trkpt>
        <trkpt lat="28.269835" lon="105.616838"><ele>624.8869</ele><time>2026-08-01T01:20:34.000Z</time></trkpt>
        <trkpt lat="28.270147" lon="105.618002"><ele>631.1669</ele><time>2026-08-01T01:35:18.000Z</time></trkpt>
        <trkpt lat="28.269984" lon="105.618269"><ele>624.15326</ele><time>2026-08-01T01:35:53.000Z</time></trkpt>
        <trkpt lat="28.270108" lon="105.619685"><ele>633.1081</ele><time>2026-08-01T01:38:53.000Z</time></trkpt>
        <trkpt lat="28.270211" lon="105.620021"><ele>638.67053</ele><time>2026-08-01T01:39:23.000Z</time></trkpt>
        <trkpt lat="28.271203" lon="105.621319"><ele>641.6811</ele><time>2026-08-01T01:43:03.000Z</time></trkpt>
        <trkpt lat="28.270572" lon="105.621987"><ele>662.0915</ele><time>2026-08-01T01:53:45.000Z</time></trkpt>
      </trkseg>
  </trk>
</gpx>